createdAt,value
2023-03-30T00:01:03.629Z,13.60
2023-03-30T00:04:30.686Z,13.20
2023-03-30T00:07:57.795Z,14.60
2023-03-30T00:11:25.319Z,13.80
2023-03-30T00:14:54.265Z,13.90
2023-03-30T00:18:22.071Z,14.40
2023-03-30T00:21:52.769Z,14.90
2023-03-30T00:25:26.724Z,15.00
2023-03-30T00:28:54.391Z,14.40
2023-03-30T00:32:21.986Z,14.40
2023-03-30T00:35:55.121Z,14.70
2023-03-30T00:39:23.146Z,13.70
2023-03-30T00:42:50.281Z,14.00
2023-03-30T00:46:17.179Z,13.20
2023-03-30T00:49:46.270Z,13.80
2023-03-30T00:53:18.546Z,12.60
2023-03-30T00:56:46.347Z,13.30
2023-03-30T01:00:15.563Z,13.90
2023-03-30T01:03:46.172Z,13.40
2023-03-30T01:07:13.787Z,14.60
2023-03-30T01:10:42.741Z,14.10
2023-03-30T01:14:11.930Z,14.30
2023-03-30T01:17:53.666Z,13.20
2023-03-30T01:21:49.000Z,16.30
2023-03-30T01:25:50.595Z,14.60
2023-03-30T01:29:31.553Z,16.00
2023-03-30T01:33:25.294Z,15.30
2023-03-30T01:37:19.086Z,14.90
2023-03-30T01:40:52.224Z,15.50
2023-03-30T01:44:27.202Z,14.60
2023-03-30T01:48:01.046Z,15.00
2023-03-30T01:51:34.129Z,14.50
2023-03-30T01:55:06.243Z,15.60
2023-03-30T01:58:37.785Z,13.80
2023-03-30T02:02:07.622Z,15.50
2023-03-30T02:05:39.990Z,14.90
2023-03-30T02:09:08.140Z,15.50
2023-03-30T02:12:36.732Z,15.50
2023-03-30T02:16:08.909Z,14.80
2023-03-30T02:19:38.099Z,15.90
2023-03-30T02:23:06.248Z,14.90
2023-03-30T02:26:34.501Z,15.80
2023-03-30T02:30:01.961Z,13.80
2023-03-30T02:33:44.799Z,14.10
2023-03-30T02:37:40.063Z,14.20
2023-03-30T02:41:20.347Z,13.70
2023-03-30T02:44:53.743Z,13.70
2023-03-30T02:48:35.092Z,13.80
2023-03-30T02:52:09.545Z,13.90
2023-03-30T02:55:50.340Z,15.40
2023-03-30T02:59:42.289Z,15.90
2023-03-30T03:03:17.411Z,15.40
2023-03-30T03:06:45.286Z,15.00
2023-03-30T03:10:13.929Z,14.80
2023-03-30T03:13:42.612Z,14.50
2023-03-30T03:17:09.861Z,13.90
2023-03-30T03:24:09.221Z,14.90
2023-03-30T03:27:55.121Z,15.10
2023-03-30T03:31:24.521Z,14.60
2023-03-30T03:34:51.616Z,14.20
2023-03-30T03:38:19.137Z,14.20
2023-03-30T03:41:48.521Z,14.80
2023-03-30T03:45:16.021Z,14.70
2023-03-30T03:48:55.020Z,13.60
2023-03-30T03:52:21.902Z,14.90
2023-03-30T03:55:48.789Z,15.30
2023-03-30T03:59:15.879Z,15.40
2023-03-30T04:02:43.593Z,14.20
2023-03-30T04:06:11.713Z,14.70
2023-03-30T04:09:39.114Z,14.70
2023-03-30T04:13:09.143Z,14.00
2023-03-30T04:16:59.236Z,14.50
2023-03-30T04:20:46.635Z,14.90
2023-03-30T04:24:38.749Z,13.70
2023-03-30T04:28:37.884Z,16.00
2023-03-30T04:32:34.975Z,15.10
2023-03-30T04:36:19.209Z,15.70
2023-03-30T04:40:16.945Z,16.20
2023-03-30T04:43:59.914Z,17.50
2023-03-30T04:47:53.266Z,16.60
2023-03-30T04:51:40.027Z,17.30
2023-03-30T04:55:25.755Z,17.10
2023-03-30T04:59:08.768Z,18.40
2023-03-30T05:03:06.296Z,17.30
2023-03-30T05:06:52.254Z,17.70
2023-03-30T05:10:43.518Z,17.80
2023-03-30T05:14:34.237Z,17.90
2023-03-30T05:18:20.962Z,17.90
2023-03-30T05:22:06.331Z,17.70
2023-03-30T05:25:33.615Z,18.40
2023-03-30T05:29:07.814Z,18.30
2023-03-30T05:32:56.065Z,19.00
2023-03-30T05:36:48.826Z,18.40
2023-03-30T05:40:27.959Z,18.40
2023-03-30T05:44:22.557Z,17.80
2023-03-30T05:48:22.163Z,17.70
2023-03-30T05:52:07.153Z,17.00
2023-03-30T05:55:57.184Z,18.70
2023-03-30T05:59:30.650Z,17.80
2023-03-30T06:03:16.688Z,19.40
2023-03-30T06:06:46.531Z,19.90
2023-03-30T06:10:25.867Z,19.30
2023-03-30T06:13:54.949Z,20.10
2023-03-30T06:17:22.730Z,19.20
2023-03-30T06:20:52.278Z,19.70
2023-03-30T06:24:21.069Z,19.40
2023-03-30T06:27:49.982Z,19.80
2023-03-30T06:31:20.376Z,18.30
2023-03-30T06:34:53.888Z,21.80
2023-03-30T06:38:23.771Z,22.20
2023-03-30T06:41:52.692Z,22.00
2023-03-30T06:45:32.918Z,22.10
2023-03-30T06:49:11.125Z,23.30
2023-03-30T06:52:46.691Z,22.10
2023-03-30T06:56:14.596Z,21.00
2023-03-30T06:59:58.150Z,21.80
2023-03-30T07:03:46.293Z,21.20
2023-03-30T07:07:23.966Z,19.40
2023-03-30T07:10:51.889Z,18.60
2023-03-30T07:14:19.820Z,19.30
2023-03-30T07:17:47.812Z,19.50
2023-03-30T07:21:19.226Z,20.50
2023-03-30T07:24:48.018Z,19.20
2023-03-30T07:28:17.916Z,20.50
2023-03-30T07:31:46.446Z,19.70
2023-03-30T07:35:30.907Z,19.40
2023-03-30T07:39:00.111Z,18.50
2023-03-30T07:42:28.755Z,19.30
2023-03-30T07:45:56.391Z,20.70
2023-03-30T07:49:29.310Z,23.10
2023-03-30T07:52:56.544Z,20.40
2023-03-30T07:56:26.099Z,20.50
2023-03-30T07:59:56.188Z,21.20
2023-03-30T08:03:45.820Z,24.50
2023-03-30T08:07:14.143Z,21.10
2023-03-30T08:10:41.520Z,20.20
2023-03-30T08:14:09.316Z,20.60
2023-03-30T08:17:36.879Z,21.10
2023-03-30T08:21:05.487Z,21.80
2023-03-30T08:24:33.159Z,19.90
2023-03-30T08:28:00.124Z,18.80
2023-03-30T08:31:27.517Z,19.20
2023-03-30T08:34:55.411Z,19.50
2023-03-30T08:38:22.387Z,23.70
2023-03-30T08:42:04.635Z,20.90
2023-03-30T08:45:41.816Z,23.40
2023-03-30T08:49:16.428Z,21.70
2023-03-30T08:52:49.237Z,21.00
2023-03-30T08:56:22.146Z,23.60
2023-03-30T09:00:07.680Z,21.70
2023-03-30T09:03:43.321Z,20.20
2023-03-30T09:07:20.802Z,23.60
2023-03-30T09:10:54.750Z,22.50
2023-03-30T09:14:37.666Z,19.80
2023-03-30T09:18:11.582Z,19.90
2023-03-30T09:25:17.811Z,18.20
2023-03-30T09:28:51.978Z,19.20
2023-03-30T09:32:32.898Z,17.90
2023-03-30T09:36:12.450Z,15.70
2023-03-30T09:39:43.777Z,17.00
2023-03-30T09:43:25.414Z,18.10
2023-03-30T09:46:54.612Z,17.10
2023-03-30T09:50:24.805Z,17.70
2023-03-30T09:53:55.769Z,18.90
2023-03-30T09:57:33.677Z,18.70
2023-03-30T10:01:12.886Z,18.50
2023-03-30T10:05:00.582Z,24.30
2023-03-30T10:08:46.392Z,21.70
2023-03-30T10:12:16.416Z,20.20
2023-03-30T10:15:46.408Z,20.50
2023-03-30T10:19:21.143Z,21.60
2023-03-30T10:22:57.355Z,19.80
2023-03-30T10:26:31.741Z,19.90
2023-03-30T10:29:58.712Z,21.70
2023-03-30T10:33:28.393Z,18.30
2023-03-30T10:36:56.772Z,18.10
2023-03-30T10:40:28.040Z,18.10
2023-03-30T10:43:55.714Z,19.00
2023-03-30T10:47:37.943Z,15.60
2023-03-30T10:51:12.802Z,16.20
2023-03-30T10:54:44.575Z,17.20
2023-03-30T10:58:21.922Z,17.50
2023-03-30T11:02:02.775Z,15.60
2023-03-30T11:05:36.481Z,15.60
2023-03-30T11:12:40.697Z,14.00
2023-03-30T11:16:14.807Z,13.70
2023-03-30T11:19:46.088Z,14.30
2023-03-30T11:23:22.792Z,13.80
2023-03-30T11:26:56.989Z,14.50
2023-03-30T11:30:29.703Z,15.40
2023-03-30T11:34:04.920Z,15.80
2023-03-30T11:37:41.388Z,16.30
2023-03-30T11:41:15.203Z,14.90
2023-03-30T11:44:42.729Z,15.00
2023-03-30T11:48:26.090Z,14.50
2023-03-30T11:52:02.306Z,13.80
2023-03-30T11:55:41.642Z,14.30
2023-03-30T11:59:17.411Z,13.00
2023-03-30T12:02:52.631Z,13.10
2023-03-30T12:06:30.154Z,13.50
2023-03-30T12:10:03.329Z,13.30
2023-03-30T12:13:41.262Z,15.10
2023-03-30T12:17:36.268Z,13.10
2023-03-30T12:21:16.647Z,13.70
2023-03-30T12:24:50.902Z,14.10
2023-03-30T12:28:21.122Z,14.70
2023-03-30T12:32:07.915Z,14.90
2023-03-30T12:36:06.023Z,14.80
2023-03-30T12:39:36.416Z,15.80
2023-03-30T12:43:11.300Z,14.20
2023-03-30T12:46:50.424Z,14.10
2023-03-30T12:50:37.497Z,14.10
2023-03-30T12:54:32.072Z,13.80
2023-03-30T12:58:31.313Z,15.60
2023-03-30T13:02:36.189Z,13.40
2023-03-30T13:06:26.088Z,15.00
2023-03-30T13:09:59.676Z,14.80
2023-03-30T13:13:55.346Z,14.90
2023-03-30T13:17:25.155Z,14.80
2023-03-30T13:21:17.775Z,16.70
2023-03-30T13:24:53.899Z,16.80
2023-03-30T13:28:58.282Z,17.00
2023-03-30T13:32:38.924Z,17.30
2023-03-30T13:36:15.038Z,18.70
2023-03-30T13:39:48.293Z,19.20
2023-03-30T13:43:25.074Z,19.20
2023-03-30T13:46:55.634Z,19.90
2023-03-30T13:50:28.215Z,17.70
2023-03-30T13:53:59.800Z,14.70
2023-03-30T13:57:34.623Z,14.90
2023-03-30T14:01:06.674Z,14.70
2023-03-30T14:04:35.453Z,13.80
2023-03-30T14:08:04.606Z,14.30
2023-03-30T14:11:37.796Z,15.30
2023-03-30T14:15:17.111Z,13.50
2023-03-30T14:18:45.875Z,14.10
2023-03-30T14:22:20.104Z,15.90
2023-03-30T14:25:48.382Z,14.70
2023-03-30T14:29:30.348Z,15.10
2023-03-30T14:33:13.155Z,15.60
2023-03-30T14:36:40.507Z,15.00
2023-03-30T14:40:17.893Z,15.40
2023-03-30T14:43:49.156Z,16.90
2023-03-30T14:47:17.264Z,17.60
2023-03-30T14:50:50.341Z,16.90
2023-03-30T14:54:22.227Z,18.60
2023-03-30T14:57:51.692Z,19.00
2023-03-30T15:01:25.723Z,18.20
2023-03-30T15:04:55.707Z,17.90
2023-03-30T15:08:27.241Z,20.90
2023-03-30T15:11:58.745Z,19.50
2023-03-30T15:15:32.128Z,24.20
2023-03-30T15:19:04.896Z,19.60
2023-03-30T15:22:38.114Z,20.00
2023-03-30T15:26:08.772Z,18.70
2023-03-30T15:33:55.560Z,15.90
2023-03-30T15:37:30.397Z,16.90
2023-03-30T15:40:59.744Z,17.00
2023-03-30T15:44:27.815Z,18.60
2023-03-30T15:47:56.671Z,18.40
2023-03-30T15:51:33.280Z,19.50
2023-03-30T15:55:08.287Z,21.40
2023-03-30T15:58:36.277Z,19.80
2023-03-30T16:02:15.387Z,20.10
2023-03-30T16:05:44.862Z,19.30
2023-03-30T16:09:11.805Z,19.20
2023-03-30T16:12:41.746Z,18.00
2023-03-30T16:16:09.442Z,19.10
2023-03-30T16:19:38.097Z,19.20
2023-03-30T16:23:05.509Z,23.50
2023-03-30T16:26:32.876Z,24.10
2023-03-30T16:30:00.213Z,23.80
2023-03-30T16:33:28.391Z,20.50
2023-03-30T16:36:57.569Z,19.70
2023-03-30T16:40:35.137Z,21.00
2023-03-30T16:44:03.658Z,18.80
2023-03-30T16:47:32.238Z,20.50
2023-03-30T16:51:01.320Z,20.70
2023-03-30T16:54:32.483Z,21.30
2023-03-30T16:58:06.361Z,21.60
2023-03-30T17:01:37.413Z,21.40
2023-03-30T17:05:04.822Z,21.30
2023-03-30T17:08:32.917Z,21.50
2023-03-30T17:12:03.876Z,22.40
2023-03-30T17:15:36.897Z,21.70
2023-03-30T17:19:12.174Z,22.50
2023-03-30T17:22:42.593Z,24.40
2023-03-30T17:26:13.480Z,27.40
2023-03-30T17:29:44.903Z,27.80
2023-03-30T17:33:13.205Z,25.10
2023-03-30T17:36:44.457Z,34.40
2023-03-30T17:40:22.774Z,34.80
2023-03-30T17:43:50.538Z,48.90
2023-03-30T17:47:18.014Z,25.30
2023-03-30T17:50:48.400Z,21.90
2023-03-30T17:54:16.733Z,22.30
2023-03-30T17:57:45.074Z,23.50
2023-03-30T18:01:14.102Z,24.40
2023-03-30T18:04:41.308Z,25.50
2023-03-30T18:08:14.839Z,26.50
2023-03-30T18:11:43.129Z,24.10
2023-03-30T18:15:12.993Z,25.80
2023-03-30T18:18:40.653Z,23.80
2023-03-30T18:22:08.128Z,22.50
2023-03-30T18:25:36.016Z,24.00
2023-03-30T18:29:06.791Z,26.50
2023-03-30T18:32:47.141Z,24.90
2023-03-30T18:36:16.633Z,21.40
2023-03-30T18:39:45.391Z,22.80
2023-03-30T18:43:15.335Z,26.50
2023-03-30T18:46:43.664Z,29.80
2023-03-30T18:50:27.546Z,25.70
2023-03-30T18:53:54.924Z,25.30
2023-03-30T18:57:22.059Z,24.90
2023-03-30T19:00:50.896Z,27.50
2023-03-30T19:04:17.814Z,35.50
2023-03-30T19:07:46.003Z,32.00
2023-03-30T19:11:15.245Z,23.70
2023-03-30T19:14:42.156Z,20.50
2023-03-30T19:18:10.619Z,20.00
2023-03-30T19:21:37.741Z,20.10
2023-03-30T19:25:06.008Z,20.50
2023-03-30T19:28:33.683Z,13.90
2023-03-30T19:32:01.007Z,11.90
2023-03-30T19:35:28.761Z,7.70
2023-03-30T19:38:56.707Z,7.70
2023-03-30T19:42:30.002Z,6.80
2023-03-30T19:45:58.649Z,5.20
2023-03-30T19:49:31.462Z,4.60
2023-03-30T19:53:04.368Z,6.50
2023-03-30T19:56:36.503Z,5.70
2023-03-30T20:00:24.394Z,5.00
2023-03-30T20:03:59.896Z,9.50
2023-03-30T20:07:28.685Z,8.80
2023-03-30T20:10:58.864Z,9.90
2023-03-30T20:14:29.348Z,7.00
2023-03-30T20:17:59.973Z,6.60
2023-03-30T20:21:30.277Z,6.70
2023-03-30T20:24:59.799Z,5.00
2023-03-30T20:28:27.780Z,6.50
2023-03-30T20:31:57.749Z,5.60
2023-03-30T20:35:25.983Z,4.30
2023-03-30T20:38:55.908Z,4.30
2023-03-30T20:42:26.595Z,5.00
2023-03-30T20:46:02.779Z,4.00
2023-03-30T20:49:30.316Z,4.40
2023-03-30T20:52:59.362Z,4.20
2023-03-30T20:56:29.257Z,5.00
2023-03-30T20:59:57.332Z,5.90
2023-03-30T21:03:29.243Z,5.80
2023-03-30T21:06:57.443Z,5.40
2023-03-30T21:10:27.120Z,5.10
2023-03-30T21:13:58.284Z,6.40
2023-03-30T21:17:29.465Z,6.30
2023-03-30T21:20:58.176Z,6.50
2023-03-30T21:24:29.246Z,6.60
2023-03-30T21:27:56.847Z,5.90
2023-03-30T21:31:24.722Z,6.20
2023-03-30T21:34:52.686Z,5.30
2023-03-30T21:38:34.397Z,4.10
2023-03-30T21:42:03.446Z,4.40
2023-03-30T21:45:35.111Z,3.40
2023-03-30T21:49:03.987Z,4.90
2023-03-30T21:52:34.506Z,4.30
2023-03-30T21:56:04.903Z,4.10
2023-03-30T21:59:34.435Z,4.80
2023-03-30T22:03:03.401Z,3.40
2023-03-30T22:06:32.993Z,3.50
2023-03-30T22:10:02.649Z,3.90
2023-03-30T22:13:32.975Z,4.60
2023-03-30T22:17:05.312Z,4.20
2023-03-30T22:20:39.788Z,6.70
2023-03-30T22:24:09.216Z,4.50
2023-03-30T22:27:39.993Z,5.10
2023-03-30T22:31:11.936Z,4.90
2023-03-30T22:34:40.996Z,5.60
2023-03-30T22:38:09.847Z,6.10
2023-03-30T22:41:36.888Z,5.90
2023-03-30T22:45:04.241Z,6.60
2023-03-30T22:48:33.908Z,6.80
2023-03-30T22:52:02.716Z,7.50
2023-03-30T22:55:32.072Z,7.50
2023-03-30T22:59:01.218Z,7.40
2023-03-30T23:02:31.411Z,8.00
2023-03-30T23:06:02.433Z,7.00
2023-03-30T23:09:32.258Z,8.40
2023-03-30T23:13:00.142Z,9.40
2023-03-30T23:16:29.222Z,8.80
2023-03-30T23:20:00.959Z,9.20
2023-03-30T23:23:28.555Z,9.40
2023-03-30T23:26:57.059Z,9.00
2023-03-30T23:30:25.297Z,9.10
2023-03-30T23:33:53.672Z,9.60
2023-03-30T23:37:22.213Z,10.90
2023-03-30T23:40:52.196Z,9.30
2023-03-30T23:44:19.701Z,9.90
2023-03-30T23:47:46.842Z,9.90
2023-03-30T23:51:14.233Z,9.50
2023-03-30T23:54:41.508Z,9.20
2023-03-30T23:58:09.169Z,10.20
